createdAt,value
2019-02-09T00:04:07.061Z,100355.97
2019-02-09T00:09:11.244Z,100340.27
2019-02-09T00:14:15.334Z,100327.41
2019-02-09T00:19:19.383Z,100321.16
2019-02-09T00:24:23.500Z,100302.27
2019-02-09T00:29:27.894Z,100298.11
2019-02-09T00:34:32.239Z,100291.03
2019-02-09T00:39:37.865Z,100284.42
2019-02-09T00:44:42.023Z,100283.84
2019-02-09T00:49:46.117Z,100279.59
2019-02-09T00:54:50.200Z,100272.99
2019-02-09T00:59:54.533Z,100268.77
2019-02-09T01:04:59.478Z,100260.75
2019-02-09T01:10:05.680Z,100248.91
2019-02-09T01:15:12.525Z,100242.88
2019-02-09T01:20:19.006Z,100243.48
2019-02-09T01:25:23.067Z,100235.62
2019-02-09T01:30:27.151Z,100224.70
2019-02-09T01:35:31.215Z,100210.13
2019-02-09T01:40:35.332Z,100193.66
2019-02-09T01:45:39.457Z,100187.41
2019-02-09T01:50:43.579Z,100180.56
2019-02-09T01:55:47.655Z,100165.23
2019-02-09T02:00:51.804Z,100151.65
2019-02-09T02:05:55.874Z,100135.27
2019-02-09T02:10:59.904Z,100132.21
2019-02-09T02:16:04.134Z,100120.02
2019-02-09T02:21:08.257Z,100088.92
2019-02-09T02:26:12.317Z,100087.72
2019-02-09T02:31:16.404Z,100070.03
2019-02-09T02:36:20.701Z,100063.28
2019-02-09T02:41:24.831Z,100044.52
2019-02-09T02:46:29.146Z,100028.19
2019-02-09T02:51:33.314Z,100010.87
2019-02-09T02:56:37.362Z,99993.77
2019-02-09T03:01:41.401Z,99991.03
2019-02-09T03:06:45.447Z,99997.88
2019-02-09T03:11:49.519Z,99994.95
2019-02-09T03:16:53.591Z,99983.19
2019-02-09T03:21:59.283Z,99975.17
2019-02-09T03:27:03.372Z,99956.42
2019-02-09T03:32:10.750Z,99948.66
2019-02-09T03:37:13.198Z,99948.08
2019-02-09T03:42:17.282Z,99925.22
2019-02-09T03:47:21.350Z,99927.91
2019-02-09T03:52:25.467Z,99932.64
2019-02-09T03:57:29.722Z,99911.92
2019-02-09T04:02:33.758Z,99911.45
2019-02-09T04:07:37.938Z,99902.53
2019-02-09T04:12:42.245Z,99906.42
2019-02-09T04:17:46.340Z,99912.42
2019-02-09T04:22:50.462Z,99903.28
2019-02-09T04:27:54.582Z,99902.30
2019-02-09T04:32:58.756Z,99895.91
2019-02-09T04:38:02.731Z,99887.53
2019-02-09T04:43:06.791Z,99876.77
2019-02-09T04:48:10.846Z,99864.81
2019-02-09T04:53:16.297Z,99868.05
2019-02-09T04:58:20.361Z,99861.27
2019-02-09T05:03:24.431Z,99855.45
2019-02-09T05:08:28.521Z,99843.84
2019-02-09T05:13:32.562Z,99847.59
2019-02-09T05:18:36.650Z,99845.97
2019-02-09T05:23:40.719Z,99857.13
2019-02-09T05:28:44.797Z,99849.95
2019-02-09T05:33:48.960Z,99847.16
2019-02-09T05:38:53.065Z,99848.18
2019-02-09T05:43:57.093Z,99847.16
2019-02-09T05:49:01.194Z,99842.19
2019-02-09T05:54:05.305Z,99845.86
2019-02-09T05:59:09.347Z,99847.58
2019-02-09T06:04:13.419Z,99851.37
2019-02-09T06:09:17.444Z,99843.71
2019-02-09T06:14:21.509Z,99855.44
2019-02-09T06:19:25.546Z,99846.28
2019-02-09T06:24:29.580Z,99838.17
2019-02-09T06:29:33.672Z,99841.52
2019-02-09T06:34:37.707Z,99838.67
2019-02-09T06:40:01.978Z,99845.44
2019-02-09T06:45:07.437Z,99855.82
2019-02-09T06:50:13.617Z,99862.66
2019-02-09T06:55:19.663Z,99869.95
2019-02-09T07:00:23.731Z,99860.64
2019-02-09T07:05:27.805Z,99854.55
2019-02-09T07:10:31.889Z,99861.07
2019-02-09T07:15:36.157Z,99872.97
2019-02-09T07:20:40.190Z,99890.64
2019-02-09T07:25:44.612Z,99889.65
2019-02-09T07:30:48.744Z,99885.63
2019-02-09T07:35:53.107Z,99878.46
2019-02-09T07:40:57.136Z,99887.92
2019-02-09T07:46:01.495Z,99884.44
2019-02-09T07:51:05.638Z,99899.05
2019-02-09T07:56:09.717Z,99898.95
2019-02-09T08:01:13.708Z,99894.19
2019-02-09T08:06:18.103Z,99897.97
2019-02-09T08:11:22.132Z,99894.08
2019-02-09T08:16:26.131Z,99907.20
2019-02-09T08:21:30.119Z,99908.25
2019-02-09T08:26:34.490Z,99912.53
2019-02-09T08:31:38.863Z,99905.76
2019-02-09T08:36:42.857Z,99895.39
2019-02-09T08:41:46.927Z,99909.89
2019-02-09T08:46:50.994Z,99916.87
2019-02-09T08:51:55.056Z,99914.87
2019-02-09T08:56:59.028Z,99914.15
2019-02-09T09:02:03.176Z,99911.42
2019-02-09T09:07:07.198Z,99909.77
2019-02-09T09:12:11.311Z,99894.56
2019-02-09T09:17:15.398Z,99916.90
2019-02-09T09:22:19.652Z,99927.92
2019-02-09T09:27:24.049Z,99927.61
2019-02-09T09:32:28.811Z,99932.77
2019-02-09T09:37:33.146Z,99947.75
2019-02-09T09:42:37.299Z,99939.92
2019-02-09T09:47:41.286Z,99944.94
2019-02-09T09:52:45.328Z,99945.74
2019-02-09T09:57:49.379Z,99959.53
2019-02-09T10:02:54.720Z,99959.53
2019-02-09T10:07:58.854Z,99938.78
2019-02-09T10:13:03.059Z,99942.22
2019-02-09T10:18:07.056Z,99947.86
2019-02-09T10:23:11.288Z,99947.86
2019-02-09T10:28:15.329Z,99963.98
2019-02-09T10:33:19.350Z,99970.33
2019-02-09T10:38:23.446Z,99966.36
2019-02-09T10:43:27.516Z,99967.09
2019-02-09T10:48:31.546Z,99963.23
2019-02-09T10:53:35.704Z,99964.07
2019-02-09T10:58:39.855Z,99967.56
2019-02-09T11:03:44.149Z,99971.75
2019-02-09T11:08:48.180Z,99972.48
2019-02-09T11:13:52.274Z,99964.61
2019-02-09T11:18:56.305Z,99977.04
2019-02-09T11:24:00.346Z,99978.97
2019-02-09T11:29:04.486Z,99973.92
2019-02-09T11:34:08.549Z,99984.72
2019-02-09T11:39:13.728Z,99972.61
2019-02-09T11:44:17.754Z,99987.42
2019-02-09T11:49:21.782Z,99980.41
2019-02-09T11:54:27.164Z,99993.33
2019-02-09T11:59:31.259Z,99984.98
2019-02-09T12:04:35.229Z,99980.92
2019-02-09T12:09:39.330Z,99995.77
2019-02-09T12:14:43.312Z,99991.17
2019-02-09T12:19:47.403Z,99990.56
2019-02-09T12:24:52.033Z,100002.30
2019-02-09T12:29:56.648Z,100026.78
2019-02-09T12:35:00.739Z,100019.56
2019-02-09T12:40:06.852Z,100016.34
2019-02-09T12:45:12.243Z,100011.52
2019-02-09T12:50:17.085Z,100010.44
2019-02-09T12:55:21.558Z,100011.14
2019-02-09T13:00:27.617Z,100007.48
2019-02-09T13:05:31.837Z,100014.48
2019-02-09T13:10:35.859Z,100011.44
2019-02-09T13:15:40.017Z,100016.96
2019-02-09T13:20:44.412Z,100010.56
2019-02-09T13:25:48.596Z,100019.67
2019-02-09T13:30:52.653Z,100023.87
2019-02-09T13:35:56.742Z,100037.44
2019-02-09T13:41:00.841Z,100021.67
2019-02-09T13:46:04.965Z,100015.14
2019-02-09T13:51:09.220Z,100009.84
2019-02-09T13:56:14.459Z,100010.88
2019-02-09T14:01:18.555Z,100005.72
2019-02-09T14:06:22.657Z,100023.05
2019-02-09T14:11:26.727Z,100016.89
2019-02-09T14:16:38.452Z,100013.17
2019-02-09T14:21:36.640Z,100024.86
2019-02-09T14:26:40.721Z,100017.76
2019-02-09T14:31:44.888Z,100034.92
2019-02-09T14:36:49.041Z,100042.81
2019-02-09T14:41:53.229Z,100056.02
2019-02-09T14:46:57.350Z,100067.31
2019-02-09T14:52:02.617Z,100052.61
2019-02-09T14:57:06.799Z,100058.52
2019-02-09T15:02:12.012Z,100060.75
2019-02-09T15:07:31.578Z,100058.17
2019-02-09T15:12:35.716Z,100067.22
2019-02-09T15:17:39.823Z,100063.36
2019-02-09T15:22:43.958Z,100063.70
2019-02-09T15:27:48.100Z,100064.80
2019-02-09T15:32:52.169Z,100063.20
2019-02-09T15:37:56.349Z,100068.66
2019-02-09T15:43:00.556Z,100062.41
2019-02-09T15:48:05.045Z,100053.77
2019-02-09T15:53:09.168Z,100068.14
2019-02-09T15:58:13.195Z,100068.28
2019-02-09T16:03:17.373Z,100072.08
2019-02-09T16:08:21.475Z,100078.14
2019-02-09T16:13:25.486Z,100089.55
2019-02-09T16:18:29.588Z,100092.66
2019-02-09T16:23:33.661Z,100109.60
2019-02-09T16:28:37.786Z,100101.65
2019-02-09T16:33:41.849Z,100097.55
2019-02-09T16:38:46.008Z,100095.77
2019-02-09T16:43:50.096Z,100095.53
2019-02-09T16:48:54.158Z,100095.53
2019-02-09T16:53:58.692Z,100105.61
2019-02-09T16:59:03.143Z,100107.30
2019-02-09T17:04:07.286Z,100112.73
2019-02-09T17:09:11.302Z,100108.65
2019-02-09T17:14:15.470Z,100102.36
2019-02-09T17:19:19.598Z,100099.57
2019-02-09T17:24:23.634Z,100095.41
2019-02-09T17:29:28.641Z,100100.30
2019-02-09T17:34:32.718Z,100112.44
2019-02-09T17:39:36.821Z,100125.58
2019-02-09T17:44:40.965Z,100186.52
2019-02-09T17:49:46.559Z,100224.27
2019-02-09T17:54:50.832Z,100232.13
2019-02-09T17:59:54.849Z,100216.56
2019-02-09T18:04:59.156Z,100232.44
2019-02-09T18:10:04.045Z,100244.77
2019-02-09T18:15:09.060Z,100232.18
2019-02-09T18:20:14.832Z,100237.25
2019-02-09T18:25:18.951Z,100230.33
2019-02-09T18:30:23.159Z,100234.31
2019-02-09T18:35:27.299Z,100224.28
2019-02-09T18:40:31.526Z,100211.38
2019-02-09T18:45:35.792Z,100217.19
2019-02-09T18:50:39.937Z,100218.94
2019-02-09T18:55:44.115Z,100218.17
2019-02-09T19:00:49.556Z,100218.77
2019-02-09T19:05:53.720Z,100217.63
2019-02-09T19:10:57.960Z,100225.75
2019-02-09T19:16:02.040Z,100230.16
2019-02-09T19:21:10.745Z,100234.84
2019-02-09T19:26:14.864Z,100237.62
2019-02-09T19:31:19.418Z,100229.75
2019-02-09T19:36:23.628Z,100240.35
2019-02-09T19:41:27.830Z,100249.69
2019-02-09T19:46:34.836Z,100249.24
2019-02-09T19:51:38.978Z,100268.59
2019-02-09T19:56:43.476Z,100271.05
2019-02-09T20:01:47.822Z,100271.91
2019-02-09T20:06:51.913Z,100272.97
2019-02-09T20:11:55.990Z,100279.27
2019-02-09T20:17:00.097Z,100287.09
2019-02-09T20:22:04.479Z,100289.59
2019-02-09T20:27:08.549Z,100287.48
2019-02-09T20:32:12.598Z,100293.69
2019-02-09T20:37:16.694Z,100297.39
2019-02-09T20:42:20.762Z,100306.30
2019-02-09T20:47:24.868Z,100317.56
2019-02-09T20:52:28.925Z,100316.62
2019-02-09T20:57:33.288Z,100324.07
2019-02-09T21:02:37.444Z,100331.63
2019-02-09T21:07:41.615Z,100338.76
2019-02-09T21:12:45.683Z,100333.55
2019-02-09T21:17:49.890Z,100339.16
2019-02-09T21:22:54.341Z,100338.27
2019-02-09T21:27:58.441Z,100343.34
2019-02-09T21:33:02.460Z,100346.98
2019-02-09T21:38:06.585Z,100351.67
2019-02-09T21:43:11.702Z,100348.66
2019-02-09T21:48:16.054Z,100353.04
2019-02-09T21:53:20.108Z,100359.82
2019-02-09T21:58:24.194Z,100366.45
2019-02-09T22:03:28.607Z,100358.38
2019-02-09T22:08:32.870Z,100358.09
2019-02-09T22:13:37.222Z,100369.80
2019-02-09T22:18:41.356Z,100362.39
2019-02-09T22:23:45.566Z,100364.39
2019-02-09T22:28:49.755Z,100362.02
2019-02-09T22:33:54.074Z,100360.48
2019-02-09T22:38:58.459Z,100360.52
2019-02-09T22:44:03.201Z,100361.85
2019-02-09T22:49:26.851Z,100365.13
2019-02-09T22:54:38.017Z,100365.12
2019-02-09T22:59:39.654Z,100367.83
2019-02-09T23:04:52.463Z,100371.42
2019-02-09T23:09:58.172Z,100373.22
2019-02-09T23:15:02.308Z,100373.74
2019-02-09T23:20:08.516Z,100375.31
2019-02-09T23:25:13.254Z,100384.23
2019-02-09T23:30:17.389Z,100381.10
2019-02-09T23:35:21.593Z,100383.88
2019-02-09T23:40:25.700Z,100391.38
2019-02-09T23:45:29.841Z,100394.64
2019-02-09T23:50:33.988Z,100394.57
2019-02-09T23:55:38.558Z,100398.55
